createdAt,value
2017-08-01T00:00:17.410Z,19.00
2017-08-01T00:02:46.408Z,19.00
2017-08-01T00:05:15.349Z,19.00
2017-08-01T00:07:44.312Z,19.00
2017-08-01T00:10:13.252Z,19.10
2017-08-01T00:12:42.989Z,19.00
2017-08-01T00:15:11.937Z,19.00
2017-08-01T00:17:40.899Z,19.00
2017-08-01T00:20:09.875Z,18.90
2017-08-01T00:22:38.822Z,18.90
2017-08-01T00:25:08.555Z,18.80
2017-08-01T00:27:37.589Z,18.80
2017-08-01T00:30:06.524Z,18.70
2017-08-01T00:32:35.499Z,18.70
2017-08-01T00:35:05.239Z,18.80
2017-08-01T00:37:34.193Z,18.70
2017-08-01T00:40:03.148Z,18.70
2017-08-01T00:42:32.129Z,18.80
2017-08-01T00:45:01.076Z,18.80
2017-08-01T00:47:30.020Z,18.70
2017-08-01T00:49:59.088Z,18.70
2017-08-01T00:52:28.027Z,18.70
2017-08-01T00:54:56.988Z,18.70
2017-08-01T00:57:25.974Z,18.70
2017-08-01T00:59:54.994Z,18.80
2017-08-01T01:02:23.939Z,18.80
2017-08-01T01:04:52.911Z,18.90
2017-08-01T01:07:22.615Z,18.60
2017-08-01T01:09:52.365Z,18.60
2017-08-01T01:12:21.471Z,18.60
2017-08-01T01:14:50.419Z,18.70
2017-08-01T01:17:19.905Z,18.70
2017-08-01T01:19:48.856Z,18.70
2017-08-01T01:22:17.883Z,18.60
2017-08-01T01:24:46.826Z,18.60
2017-08-01T01:27:15.808Z,18.70
2017-08-01T01:29:44.770Z,18.70
2017-08-01T01:32:13.712Z,18.80
2017-08-01T01:34:42.767Z,18.80
2017-08-01T01:37:11.697Z,18.70
2017-08-01T01:39:40.826Z,18.70
2017-08-01T01:42:09.856Z,18.60
2017-08-01T01:44:40.152Z,18.70
2017-08-01T01:47:09.161Z,18.70
2017-08-01T01:49:38.905Z,18.80
2017-08-01T01:52:07.876Z,18.80
2017-08-01T01:54:37.225Z,18.80
2017-08-01T01:57:06.180Z,18.90
2017-08-01T01:59:35.120Z,19.00
2017-08-01T02:02:04.244Z,19.00
2017-08-01T02:04:33.188Z,18.90
2017-08-01T02:07:02.137Z,18.90
2017-08-01T02:09:31.126Z,19.00
2017-08-01T02:12:00.068Z,19.10
2017-08-01T02:14:29.034Z,19.00
2017-08-01T02:16:58.094Z,19.00
2017-08-01T02:19:27.049Z,18.90
2017-08-01T02:21:56.046Z,18.90
2017-08-01T02:24:24.991Z,18.90
2017-08-01T02:26:53.935Z,18.90
2017-08-01T02:29:23.817Z,18.90
2017-08-01T02:31:52.852Z,18.90
2017-08-01T02:34:21.777Z,18.70
2017-08-01T02:36:50.764Z,18.60
2017-08-01T02:39:20.190Z,18.70
2017-08-01T02:41:49.167Z,18.70
2017-08-01T02:44:18.241Z,18.70
2017-08-01T02:46:47.773Z,18.70
2017-08-01T02:49:16.730Z,18.70
2017-08-01T02:51:45.690Z,18.80
2017-08-01T02:54:14.648Z,18.70
2017-08-01T02:56:43.616Z,18.60
2017-08-01T02:59:12.645Z,18.70
2017-08-01T03:01:41.611Z,18.70
2017-08-01T03:04:11.132Z,18.70
2017-08-01T03:06:40.464Z,18.60
2017-08-01T03:09:09.450Z,18.50
2017-08-01T03:11:38.397Z,18.50
2017-08-01T03:14:07.390Z,18.60
2017-08-01T03:16:37.288Z,18.70
2017-08-01T03:19:07.010Z,18.80
2017-08-01T03:21:36.238Z,18.80
2017-08-01T03:24:05.168Z,18.90
2017-08-01T03:26:34.127Z,18.90
2017-08-01T03:29:03.130Z,18.90
2017-08-01T03:31:32.085Z,18.70
2017-08-01T03:34:01.178Z,18.80
2017-08-01T03:36:30.170Z,18.90
2017-08-01T03:38:59.114Z,18.90
2017-08-01T03:41:28.057Z,18.70
2017-08-01T03:43:58.114Z,18.70
2017-08-01T03:46:27.067Z,18.70
2017-08-01T03:48:56.023Z,18.70
2017-08-01T03:51:24.979Z,18.80
2017-08-01T03:53:53.944Z,19.00
2017-08-01T03:56:23.132Z,18.90
2017-08-01T03:58:52.104Z,18.90
2017-08-01T04:01:21.826Z,18.70
2017-08-01T04:03:51.165Z,18.70
2017-08-01T04:06:20.108Z,18.60
2017-08-01T04:08:49.836Z,18.80
2017-08-01T04:11:18.815Z,18.80
2017-08-01T04:13:48.572Z,18.80
2017-08-01T04:16:17.515Z,18.80
2017-08-01T04:18:46.503Z,18.80
2017-08-01T04:21:15.897Z,17.60
2017-08-01T04:23:45.652Z,19.10
2017-08-01T04:26:14.584Z,19.10
2017-08-01T04:28:43.533Z,19.10
2017-08-01T04:31:12.518Z,19.10
2017-08-01T04:33:41.482Z,19.00
2017-08-01T04:36:11.199Z,19.00
2017-08-01T04:38:40.189Z,19.00
2017-08-01T04:41:09.956Z,19.00
2017-08-01T04:43:38.917Z,19.00
2017-08-01T04:46:07.896Z,19.00
2017-08-01T04:48:36.968Z,19.20
2017-08-01T04:51:05.918Z,19.30
2017-08-01T04:53:34.888Z,19.20
2017-08-01T04:56:03.853Z,19.20
2017-08-01T04:58:33.244Z,19.20
2017-08-01T05:01:02.953Z,19.20
2017-08-01T05:03:32.688Z,19.10
2017-08-01T05:06:01.659Z,19.10
2017-08-01T05:08:30.612Z,19.10
2017-08-01T05:11:02.669Z,19.10
2017-08-01T05:13:31.615Z,19.40
2017-08-01T05:16:00.577Z,19.60
2017-08-01T05:18:29.553Z,19.60
2017-08-01T05:20:58.521Z,19.60
2017-08-01T05:23:27.523Z,19.90
2017-08-01T05:25:56.486Z,20.00
2017-08-01T05:28:25.667Z,20.00
2017-08-01T05:30:54.864Z,20.00
2017-08-01T05:33:24.584Z,20.20
2017-08-01T05:35:53.574Z,20.20
2017-08-01T05:38:23.826Z,20.20
2017-08-01T05:40:52.874Z,20.20
2017-08-01T05:43:21.817Z,20.30
2017-08-01T05:45:50.817Z,20.30
2017-08-01T05:48:20.199Z,20.40
2017-08-01T05:50:49.133Z,20.30
2017-08-01T05:53:18.120Z,20.30
2017-08-01T05:55:47.082Z,20.40
2017-08-01T05:58:16.332Z,20.20
2017-08-01T06:00:46.069Z,20.30
2017-08-01T06:03:15.016Z,20.20
2017-08-01T06:05:44.412Z,20.00
2017-08-01T06:08:13.384Z,20.20
2017-08-01T06:10:42.396Z,20.30
2017-08-01T06:13:11.363Z,20.30
2017-08-01T06:15:40.369Z,20.40
2017-08-01T06:18:09.299Z,20.50
2017-08-01T06:20:39.016Z,20.80
2017-08-01T06:23:08.785Z,20.90
2017-08-01T06:25:37.751Z,20.90
2017-08-01T06:28:06.974Z,21.10
2017-08-01T06:30:35.995Z,21.20
2017-08-01T06:33:06.048Z,21.10
2017-08-01T06:35:35.015Z,21.10
2017-08-01T06:38:04.759Z,21.30
2017-08-01T06:40:34.293Z,21.30
2017-08-01T06:43:03.277Z,21.50
2017-08-01T06:45:32.215Z,21.70
2017-08-01T06:48:01.178Z,21.80
2017-08-01T06:50:30.132Z,21.90
2017-08-01T06:52:59.109Z,22.10
2017-08-01T06:55:28.047Z,22.30
2017-08-01T06:57:57.006Z,22.50
2017-08-01T07:00:26.137Z,22.50
2017-08-01T07:02:55.112Z,22.70
2017-08-01T07:05:24.054Z,22.60
2017-08-01T07:07:53.045Z,22.70
2017-08-01T07:10:22.040Z,22.80
2017-08-01T07:12:51.018Z,22.80
2017-08-01T07:15:20.735Z,22.90
2017-08-01T07:17:49.715Z,22.90
2017-08-01T07:20:19.463Z,22.90
2017-08-01T07:22:48.421Z,22.80
2017-08-01T07:25:18.150Z,23.00
2017-08-01T07:27:47.128Z,23.00
2017-08-01T07:30:16.075Z,23.20
2017-08-01T07:32:45.077Z,23.20
2017-08-01T07:35:14.055Z,23.30
2017-08-01T07:37:43.013Z,23.30
2017-08-01T07:40:12.219Z,23.40
2017-08-01T07:42:41.182Z,23.60
2017-08-01T07:45:10.934Z,23.90
2017-08-01T07:47:40.000Z,23.80
2017-08-01T07:50:08.979Z,24.00
2017-08-01T07:52:38.713Z,24.10
2017-08-01T07:55:07.701Z,24.00
2017-08-01T07:57:36.653Z,24.00
2017-08-01T08:00:05.603Z,24.20
2017-08-01T08:02:35.599Z,24.10
2017-08-01T08:05:04.546Z,24.10
2017-08-01T08:07:33.535Z,24.10
2017-08-01T08:10:02.678Z,24.10
2017-08-01T08:12:31.628Z,24.20
2017-08-01T08:15:00.580Z,24.40
2017-08-01T08:17:29.557Z,24.40
2017-08-01T08:19:58.537Z,24.40
2017-08-01T08:22:27.493Z,24.40
2017-08-01T08:24:56.478Z,24.20
2017-08-01T08:27:25.446Z,24.20
2017-08-01T08:29:54.422Z,24.40
2017-08-01T08:32:23.583Z,24.60
2017-08-01T08:34:53.324Z,24.70
2017-08-01T08:37:22.289Z,24.60
2017-08-01T08:39:52.042Z,24.70
2017-08-01T08:42:21.775Z,24.60
2017-08-01T08:44:51.022Z,24.70
2017-08-01T08:47:19.982Z,24.90
2017-08-01T08:49:48.949Z,25.20
2017-08-01T08:52:17.977Z,25.40
2017-08-01T08:54:47.146Z,25.30
2017-08-01T08:57:16.103Z,25.20
2017-08-01T08:59:45.095Z,25.20
2017-08-01T09:02:14.137Z,25.10
2017-08-01T09:04:43.266Z,25.20
2017-08-01T09:07:12.934Z,25.30
2017-08-01T09:09:42.873Z,25.40
2017-08-01T09:12:11.845Z,25.60
2017-08-01T09:14:40.826Z,25.80
2017-08-01T09:17:09.776Z,26.00
2017-08-01T09:19:38.732Z,26.20
2017-08-01T09:22:07.724Z,26.20
2017-08-01T09:24:37.138Z,26.20
2017-08-01T09:27:06.889Z,26.30
2017-08-01T09:29:35.837Z,26.30
2017-08-01T09:32:05.592Z,25.90
2017-08-01T09:34:34.540Z,25.90
2017-08-01T09:37:04.281Z,26.00
2017-08-01T09:39:33.261Z,26.00
2017-08-01T09:42:02.240Z,26.10
2017-08-01T09:44:31.181Z,26.00
2017-08-01T09:47:00.458Z,25.90
2017-08-01T09:49:29.405Z,25.90
2017-08-01T09:51:58.383Z,25.60
2017-08-01T09:54:27.340Z,25.60
2017-08-01T09:56:56.275Z,25.60
2017-08-01T09:59:25.254Z,25.80
2017-08-01T10:01:54.417Z,25.80
2017-08-01T10:04:23.386Z,25.70
2017-08-01T10:06:52.329Z,26.00
2017-08-01T10:09:21.291Z,25.70
2017-08-01T10:11:50.279Z,25.70
2017-08-01T10:14:19.272Z,25.70
2017-08-01T10:16:48.247Z,25.70
2017-08-01T10:19:17.231Z,25.70
2017-08-01T10:21:46.198Z,25.50
2017-08-01T10:24:15.163Z,25.60
2017-08-01T10:26:44.195Z,25.90
2017-08-01T10:29:13.934Z,25.70
2017-08-01T10:31:42.912Z,25.60
2017-08-01T10:34:11.897Z,25.30
2017-08-01T10:36:40.858Z,25.10
2017-08-01T10:39:09.801Z,25.10
2017-08-01T10:41:38.775Z,25.20
2017-08-01T10:44:07.736Z,25.30
2017-08-01T10:46:36.741Z,25.50
2017-08-01T10:49:06.464Z,25.70
2017-08-01T10:51:35.405Z,25.70
2017-08-01T10:54:04.376Z,25.90
2017-08-01T10:56:33.336Z,26.10
2017-08-01T10:59:03.178Z,25.90
2017-08-01T11:01:32.131Z,25.80
2017-08-01T11:04:01.867Z,26.10
2017-08-01T11:06:30.813Z,26.10
2017-08-01T11:08:59.833Z,26.10
2017-08-01T11:11:28.797Z,26.40
2017-08-01T11:13:57.767Z,26.40
2017-08-01T11:16:26.729Z,26.40
2017-08-01T11:18:55.735Z,26.30
2017-08-01T11:21:24.719Z,26.40
2017-08-01T11:23:53.709Z,26.50
2017-08-01T11:26:22.673Z,26.70
2017-08-01T11:28:53.245Z,27.70
2017-08-01T11:31:22.189Z,27.70
2017-08-01T11:33:51.168Z,28.00
2017-08-01T11:36:20.124Z,27.90
2017-08-01T11:38:49.114Z,27.80
2017-08-01T11:41:18.267Z,27.90
2017-08-01T11:43:47.271Z,28.10
2017-08-01T11:46:16.578Z,28.00
2017-08-01T11:48:45.667Z,27.80
2017-08-01T11:51:14.616Z,27.40
2017-08-01T11:53:43.596Z,26.90
2017-08-01T11:56:12.564Z,26.50
2017-08-01T11:58:41.652Z,26.20
2017-08-01T12:01:10.670Z,25.70
2017-08-01T12:03:41.072Z,25.20
2017-08-01T12:06:10.057Z,25.20
2017-08-01T12:08:39.000Z,24.90
2017-08-01T12:11:07.963Z,24.60
2017-08-01T12:13:37.012Z,24.60
2017-08-01T12:16:05.981Z,24.50
2017-08-01T12:18:34.926Z,24.40
2017-08-01T12:21:05.627Z,24.20
2017-08-01T12:23:35.353Z,24.30
2017-08-01T12:26:04.321Z,24.30
2017-08-01T12:28:33.354Z,24.30
2017-08-01T12:31:02.652Z,24.20
2017-08-01T12:33:31.686Z,24.40
2017-08-01T12:36:00.712Z,24.50
2017-08-01T12:38:29.652Z,24.60
2017-08-01T12:40:58.671Z,24.70
2017-08-01T12:43:27.627Z,24.70
2017-08-01T12:45:56.594Z,25.00
2017-08-01T12:48:25.556Z,25.10
2017-08-01T12:50:54.504Z,25.00
2017-08-01T12:53:23.895Z,25.00
2017-08-01T12:55:52.839Z,24.60
2017-08-01T12:58:21.810Z,24.60
2017-08-01T13:00:50.792Z,24.40
2017-08-01T13:03:19.934Z,24.40
2017-08-01T13:05:49.685Z,24.60
2017-08-01T13:08:18.648Z,24.60
2017-08-01T13:10:47.594Z,24.90
2017-08-01T13:13:16.613Z,25.10
2017-08-01T13:15:45.579Z,25.10
2017-08-01T13:18:14.578Z,25.00
2017-08-01T13:20:43.773Z,24.90
2017-08-01T13:23:12.755Z,24.80
2017-08-01T13:25:42.214Z,24.80
2017-08-01T13:28:11.210Z,24.50
2017-08-01T13:30:40.406Z,24.50
2017-08-01T13:33:09.353Z,24.60
2017-08-01T13:35:38.318Z,24.60
2017-08-01T13:38:07.419Z,24.80
2017-08-01T13:40:36.386Z,24.90
2017-08-01T13:43:05.816Z,25.00
2017-08-01T13:45:34.784Z,25.20
2017-08-01T13:48:03.772Z,25.20
2017-08-01T13:50:32.727Z,25.30
2017-08-01T13:53:01.699Z,25.40
2017-08-01T13:55:30.714Z,25.20
2017-08-01T13:58:00.303Z,25.20
2017-08-01T14:00:29.852Z,25.00
2017-08-01T14:02:58.820Z,25.10
2017-08-01T14:05:28.554Z,25.00
2017-08-01T14:07:57.525Z,25.00
2017-08-01T14:10:27.456Z,25.00
2017-08-01T14:12:56.433Z,25.10
2017-08-01T14:15:25.706Z,25.00
2017-08-01T14:17:54.665Z,25.00
2017-08-01T14:20:23.913Z,25.40
2017-08-01T14:22:55.433Z,25.60
2017-08-01T14:25:24.467Z,26.00
2017-08-01T14:27:53.570Z,25.80
2017-08-01T14:30:22.601Z,25.80
2017-08-01T14:32:51.574Z,25.90
2017-08-01T14:35:20.550Z,25.60
2017-08-01T14:37:49.583Z,25.40
2017-08-01T14:40:18.534Z,25.20
2017-08-01T14:42:47.520Z,24.90
2017-08-01T14:45:16.605Z,24.70
2017-08-01T14:47:45.574Z,24.50
2017-08-01T14:50:15.049Z,24.50
2017-08-01T14:52:44.062Z,24.60
2017-08-01T14:55:13.041Z,24.60
2017-08-01T14:57:42.018Z,24.60
2017-08-01T15:00:11.025Z,24.70
2017-08-01T15:02:40.191Z,24.60
2017-08-01T15:05:09.144Z,24.50
2017-08-01T15:07:38.242Z,24.40
2017-08-01T15:10:07.478Z,24.30
2017-08-01T15:12:36.597Z,24.30
2017-08-01T15:15:05.622Z,24.30
2017-08-01T15:17:35.352Z,24.80
2017-08-01T15:20:05.153Z,24.90
2017-08-01T15:22:34.127Z,24.80
2017-08-01T15:25:03.084Z,24.80
2017-08-01T15:27:32.072Z,25.00
2017-08-01T15:30:01.137Z,25.00
2017-08-01T15:32:30.945Z,24.90
2017-08-01T15:34:59.965Z,24.90
2017-08-01T15:37:28.949Z,24.90
2017-08-01T15:39:57.979Z,24.50
2017-08-01T15:42:26.941Z,24.30
2017-08-01T15:44:55.898Z,24.40
2017-08-01T15:47:25.052Z,24.40
2017-08-01T15:49:55.130Z,24.30
2017-08-01T15:52:24.257Z,24.40
2017-08-01T15:54:53.289Z,24.20
2017-08-01T15:57:22.238Z,24.30
2017-08-01T15:59:51.256Z,24.20
2017-08-01T16:02:20.252Z,24.10
2017-08-01T16:04:49.226Z,24.10
2017-08-01T16:07:18.190Z,24.00
2017-08-01T16:09:47.189Z,23.80
2017-08-01T16:12:17.037Z,23.60
2017-08-01T16:14:46.003Z,23.60
2017-08-01T16:17:14.957Z,23.60
2017-08-01T16:19:44.191Z,23.60
2017-08-01T16:22:13.165Z,23.60
2017-08-01T16:24:42.139Z,23.40
2017-08-01T16:27:11.149Z,23.40
2017-08-01T16:29:40.108Z,23.40
2017-08-01T16:32:09.124Z,23.30
2017-08-01T16:34:38.073Z,23.40
2017-08-01T16:37:07.036Z,23.50
2017-08-01T16:39:35.999Z,23.60
2017-08-01T16:42:05.242Z,23.60
2017-08-01T16:44:34.239Z,23.80
2017-08-01T16:47:03.205Z,23.90
2017-08-01T16:49:32.178Z,24.10
2017-08-01T16:52:01.164Z,24.20
2017-08-01T16:54:30.172Z,24.20
2017-08-01T16:56:59.161Z,24.20
2017-08-01T16:59:28.104Z,24.30
2017-08-01T17:01:57.073Z,24.30
2017-08-01T17:04:26.279Z,24.30
2017-08-01T17:06:55.250Z,24.30
2017-08-01T17:09:24.294Z,24.30
2017-08-01T17:11:55.462Z,24.20
2017-08-01T17:14:24.463Z,24.20
2017-08-01T17:16:54.193Z,24.40
2017-08-01T17:19:23.167Z,24.30
2017-08-01T17:21:52.158Z,24.40
2017-08-01T17:24:21.105Z,24.40
2017-08-01T17:26:50.077Z,24.30
2017-08-01T17:29:19.150Z,24.40
2017-08-01T17:31:48.137Z,24.40
2017-08-01T17:34:17.102Z,24.40
2017-08-01T17:36:46.857Z,24.10
2017-08-01T17:39:15.821Z,24.10
2017-08-01T17:41:44.764Z,23.90
2017-08-01T17:44:13.752Z,23.80
2017-08-01T17:46:42.969Z,23.60
2017-08-01T17:49:11.954Z,23.30
2017-08-01T17:51:40.932Z,23.30
2017-08-01T17:54:10.110Z,23.30
2017-08-01T17:56:39.106Z,23.40
2017-08-01T17:59:08.071Z,23.30
2017-08-01T18:01:37.100Z,23.30
2017-08-01T18:04:06.052Z,23.30
2017-08-01T18:06:35.038Z,23.30
2017-08-01T18:09:04.182Z,23.20
2017-08-01T18:11:33.129Z,23.20
2017-08-01T18:14:02.130Z,23.20
2017-08-01T18:16:31.077Z,23.30
2017-08-01T18:19:00.092Z,23.30
2017-08-01T18:21:29.865Z,23.20
2017-08-01T18:23:58.845Z,23.20
2017-08-01T18:26:27.830Z,22.90
2017-08-01T18:28:56.776Z,22.70
2017-08-01T18:31:25.984Z,22.60
2017-08-01T18:33:54.948Z,22.70
2017-08-01T18:36:23.913Z,22.60
2017-08-01T18:38:52.877Z,22.60
2017-08-01T18:41:21.867Z,22.60
2017-08-01T18:43:50.829Z,22.50
2017-08-01T18:46:19.866Z,22.40
2017-08-01T18:48:48.816Z,22.30
2017-08-01T18:51:18.580Z,22.30
2017-08-01T18:53:47.536Z,22.30
2017-08-01T18:56:16.510Z,22.30
2017-08-01T18:58:45.581Z,22.20
2017-08-01T19:01:14.682Z,22.20
2017-08-01T19:03:43.662Z,22.10
2017-08-01T19:06:12.752Z,22.00
2017-08-01T19:08:42.118Z,21.90
2017-08-01T19:11:11.133Z,21.70
2017-08-01T19:13:40.096Z,21.50
2017-08-01T19:16:09.079Z,21.40
2017-08-01T19:18:38.056Z,21.30
2017-08-01T19:21:07.070Z,21.20
2017-08-01T19:23:36.072Z,21.30
2017-08-01T19:26:05.065Z,21.40
2017-08-01T19:28:34.054Z,21.50
2017-08-01T19:31:03.130Z,21.50
2017-08-01T19:33:32.871Z,21.40
2017-08-01T19:36:01.870Z,21.40
2017-08-01T19:38:30.842Z,21.50
2017-08-01T19:40:59.848Z,21.30
2017-08-01T19:43:28.871Z,21.30
2017-08-01T19:45:57.849Z,21.20
2017-08-01T19:48:26.843Z,21.10
2017-08-01T19:50:56.025Z,20.90
2017-08-01T19:53:25.079Z,20.80
2017-08-01T19:55:54.037Z,20.70
2017-08-01T19:58:23.064Z,20.60
2017-08-01T20:00:54.022Z,20.40
2017-08-01T20:03:23.044Z,20.40
2017-08-01T20:05:52.969Z,20.40
2017-08-01T20:08:22.046Z,20.30
2017-08-01T20:10:51.045Z,20.40
2017-08-01T20:13:20.038Z,20.40
2017-08-01T20:15:49.011Z,20.30
2017-08-01T20:18:18.003Z,20.10
2017-08-01T20:20:47.100Z,20.00
2017-08-01T20:23:16.110Z,20.10
2017-08-01T20:25:45.086Z,19.90
2017-08-01T20:28:14.327Z,19.80
2017-08-01T20:30:43.655Z,19.70
2017-08-01T20:33:13.439Z,19.80
2017-08-01T20:35:42.426Z,19.80
2017-08-01T20:38:11.410Z,19.70
2017-08-01T20:40:40.428Z,19.60
2017-08-01T20:43:09.416Z,19.50
2017-08-01T20:45:38.385Z,19.40
2017-08-01T20:48:07.379Z,19.10
2017-08-01T20:50:36.345Z,18.80
2017-08-01T20:53:06.479Z,18.80
2017-08-01T20:55:35.458Z,18.80
2017-08-01T20:58:04.407Z,18.90
2017-08-01T21:00:33.448Z,19.20
2017-08-01T21:03:02.459Z,19.10
2017-08-01T21:05:31.531Z,19.10
2017-08-01T21:08:00.521Z,19.30
2017-08-01T21:10:29.480Z,19.40
2017-08-01T21:12:59.238Z,19.00
2017-08-01T21:15:28.234Z,19.00
2017-08-01T21:17:57.190Z,19.00
2017-08-01T21:20:26.188Z,19.00
2017-08-01T21:22:55.198Z,19.00
2017-08-01T21:25:24.201Z,19.00
2017-08-01T21:27:53.154Z,18.90
2017-08-01T21:30:22.142Z,18.80
2017-08-01T21:32:51.888Z,18.50
2017-08-01T21:35:20.857Z,18.50
2017-08-01T21:37:52.384Z,18.60
2017-08-01T21:40:21.978Z,18.50
2017-08-01T21:42:50.907Z,18.50
2017-08-01T21:45:19.889Z,18.50
2017-08-01T21:47:48.852Z,18.50
2017-08-01T21:50:17.842Z,18.60
2017-08-01T21:52:46.780Z,18.40
2017-08-01T21:55:15.841Z,18.50
2017-08-01T21:57:44.811Z,18.30
2017-08-01T22:00:13.821Z,18.30
2017-08-01T22:02:43.848Z,18.50
2017-08-01T22:05:13.612Z,18.50
2017-08-01T22:07:42.565Z,18.50
2017-08-01T22:10:11.505Z,18.40
2017-08-01T22:12:42.411Z,18.30
2017-08-01T22:15:11.375Z,18.30
2017-08-01T22:17:41.122Z,18.20
2017-08-01T22:20:10.094Z,18.10
2017-08-01T22:22:39.050Z,18.00
2017-08-01T22:25:08.814Z,18.00
2017-08-01T22:27:37.817Z,17.90
2017-08-01T22:30:06.779Z,17.90
2017-08-01T22:32:35.851Z,18.00
2017-08-01T22:35:05.567Z,18.00
2017-08-01T22:37:35.731Z,18.00
2017-08-01T22:40:04.718Z,17.80
2017-08-01T22:42:33.678Z,17.60
2017-08-01T22:45:02.622Z,17.70
2017-08-01T22:47:31.616Z,17.60
2017-08-01T22:50:00.557Z,17.50
2017-08-01T22:52:29.644Z,17.50
2017-08-01T22:54:59.392Z,17.60
2017-08-01T22:57:28.474Z,17.60
2017-08-01T22:59:57.433Z,17.50
2017-08-01T23:02:27.170Z,17.50
2017-08-01T23:04:56.133Z,17.50
2017-08-01T23:07:25.934Z,17.70
2017-08-01T23:09:55.693Z,17.60
2017-08-01T23:12:24.867Z,17.60
2017-08-01T23:14:53.865Z,17.40
2017-08-01T23:17:22.844Z,17.20
2017-08-01T23:19:51.839Z,17.30
2017-08-01T23:22:20.797Z,17.50
2017-08-01T23:24:49.757Z,17.30
2017-08-01T23:27:18.732Z,17.30
2017-08-01T23:29:47.701Z,17.40
2017-08-01T23:32:17.477Z,17.40
2017-08-01T23:34:46.444Z,17.40
2017-08-01T23:37:15.552Z,17.40
2017-08-01T23:39:44.513Z,17.30
2017-08-01T23:42:13.482Z,17.50
2017-08-01T23:44:43.240Z,17.40
2017-08-01T23:47:12.185Z,17.40
2017-08-01T23:49:41.928Z,17.40
2017-08-01T23:52:10.887Z,17.30
2017-08-01T23:54:40.626Z,17.20
2017-08-01T23:57:10.519Z,17.40
2017-08-01T23:59:39.494Z,17.40
